Aérodrome :
LOGIN :

S'inscrire | Disclaimer

   EN    FR    IT 

 










Légende :    VFR   VFR Marginal   IFR   IFR Intensif   IFR Très Intensif
Visi : 
Plafond : 
>= 8 km
>= 3000ft
5 à 8 km
1000 à 3000 ft
1500m à 5 km
500 à 1000 ft
800 à 1500m
200 à 500 ft
< 800m
< 200 ft
Symboles :   Orages  Brouillard  Fortes neiges  Fortes précipitations  Vent > 20 kt
SIGMETs :   Divers  Orages  Givrage  Turbulence  Onde Orograph.  Cendres Volcan.






- Altitude de l'aérodrome : 86 ft
- Code IATA : HAU


ENHD - Haugesund

DERNIER METAR :
  • 190750Z 36008KT 9999 FEW005 BKN010 13/12 Q1027

METARs EXPIRÉS :
  • 190720Z 35006KT 330V030 2300 -RA BR VV007 13/12 Q1027
  • 190650Z 02005KT 9999 FEW006 BKN013 13/11 Q1027
  • 190620Z AUTO 01008KT 9999 FEW005/// SCT008/// OVC011/// 13/12 Q1027
  • 190550Z AUTO 34010KT 9999 FEW006/// BKN009/// OVC010/// 13/11 Q1027
  • 190520Z AUTO 34009KT 9999 BKN009/// OVC011/// 13/11 Q1027

TAF TAF ENHD
Valide du 19 à 06h jusqu'au 19 à 15h UTC


190500Z 1906/1915 35008KT 9999 -DZ SCT003 BKN007
BECMG 1906/1909 FEW012 SCT030



MET'MAP, la Météo Aéronautique d'un coup d'oeil ! - Copyright ORBIFLY Décembre 2007 - Disclaimer

ORBIFLY MET'MAP TEAM :

Programmation & Développement : Alexandra Zaïnal
Sur une idée originale de : Baudouin d'Aumeries
Assistance à la programmation : Marc-Olivier Méhu
Soutien technique & logistique : Manuel Goepfert

Contact : metmap@orbifly.com




SOURCES & CREDITS :

   NOAA